Howick, Canada
Current Conditions -  °F | °C
As of 11:00 PM on Saturday 25 Oct 2014 (Local Time) from CYUL Reporting Station
Rain Showers Rain Showers  
Wind Chill: 52°   Ceiling: 7000
Heat Index: 52°   Visibility: 15mi
Dew Point: 48°   Wind: 13mph
Humidity: 88%   Direction: 250°WSW
Pressure: 29.41"   Gusts: 21mph
Location:  45.18°N, 73.85°W
Report Text: CYUL 260300Z 25011G18KT 15SM -SHRA SCT010 OVC070 11/09 A2941 RMK SF4AC4 SLP959 DENSITY ALT 200FT
Loading
Personal Weather Stations






























Interactive Weather Map
Tropical Storm Tracking
New forecast layout! Learn more

10-Day Weather Forecast

Advertisements
Track Severe Weather on mobile